Terminal Aerodrome Forecast
Issued by NWS

Current Version | Previous Version | Text Only | Print | Product List | Glossary On
Versions: 1 2 3 4 5 6 7 8 9 10 11 12 13 14 15 16
451
FTUS46 KLOX 252127 AAA
TAFBUR
TAF AMD
KBUR 252127Z 2521/2618 17010KT P6SM SKC
     FM260100 14008KT P6SM SKC
     FM260500 VRB05KT P6SM SCT200=

USA.gov is the U.S. government's official web portal to all federal, state and local government web resources and services.